sensor_id;sensor_type;location;lat;lon;timestamp;temperature;humidity
9448;DHT22;4762;48.128;11.376;2023-11-21T00:00:35;6.20;85.90
9448;DHT22;4762;48.128;11.376;2023-11-21T00:02:39;6.10;86.10
9448;DHT22;4762;48.128;11.376;2023-11-21T00:04:43;6.10;87.40
9448;DHT22;4762;48.128;11.376;2023-11-21T00:06:46;6.10;87.20
9448;DHT22;4762;48.128;11.376;2023-11-21T00:08:48;6.10;87.60
9448;DHT22;4762;48.128;11.376;2023-11-21T00:10:51;6.00;88.00
9448;DHT22;4762;48.128;11.376;2023-11-21T00:12:53;6.10;87.10
9448;DHT22;4762;48.128;11.376;2023-11-21T00:14:55;6.10;87.50
9448;DHT22;4762;48.128;11.376;2023-11-21T00:16:58;6.10;88.20
9448;DHT22;4762;48.128;11.376;2023-11-21T00:18:59;6.10;87.20
9448;DHT22;4762;48.128;11.376;2023-11-21T00:21:02;6.20;87.10
9448;DHT22;4762;48.128;11.376;2023-11-21T00:23:04;6.20;87.30
9448;DHT22;4762;48.128;11.376;2023-11-21T00:25:07;6.10;87.50
9448;DHT22;4762;48.128;11.376;2023-11-21T00:27:09;6.10;86.20
9448;DHT22;4762;48.128;11.376;2023-11-21T00:29:12;6.20;87.10
9448;DHT22;4762;48.128;11.376;2023-11-21T00:31:14;5.80;87.20
9448;DHT22;4762;48.128;11.376;2023-11-21T00:33:16;6.30;87.20
9448;DHT22;4762;48.128;11.376;2023-11-21T00:35:18;6.10;87.40
9448;DHT22;4762;48.128;11.376;2023-11-21T00:37:20;6.10;87.00
9448;DHT22;4762;48.128;11.376;2023-11-21T00:39:23;6.00;86.20
9448;DHT22;4762;48.128;11.376;2023-11-21T00:41:25;6.10;86.40
9448;DHT22;4762;48.128;11.376;2023-11-21T00:43:28;5.80;86.70
9448;DHT22;4762;48.128;11.376;2023-11-21T00:45:30;5.80;86.70
9448;DHT22;4762;48.128;11.376;2023-11-21T00:47:32;6.00;86.90
9448;DHT22;4762;48.128;11.376;2023-11-21T00:49:34;5.80;87.10
9448;DHT22;4762;48.128;11.376;2023-11-21T00:51:36;5.80;87.30
9448;DHT22;4762;48.128;11.376;2023-11-21T00:53:38;5.80;87.70
9448;DHT22;4762;48.128;11.376;2023-11-21T00:55:41;5.70;87.70
9448;DHT22;4762;48.128;11.376;2023-11-21T00:57:43;5.70;87.60
9448;DHT22;4762;48.128;11.376;2023-11-21T00:59:45;5.80;87.70
9448;DHT22;4762;48.128;11.376;2023-11-21T01:01:47;5.50;87.70
9448;DHT22;4762;48.128;11.376;2023-11-21T01:03:49;5.40;88.00
9448;DHT22;4762;48.128;11.376;2023-11-21T01:05:52;5.50;87.90
9448;DHT22;4762;48.128;11.376;2023-11-21T01:07:54;5.40;87.90
9448;DHT22;4762;48.128;11.376;2023-11-21T01:09:56;5.60;87.90
9448;DHT22;4762;48.128;11.376;2023-11-21T01:11:58;5.10;88.10
9448;DHT22;4762;48.128;11.376;2023-11-21T01:14:00;5.20;88.80
9448;DHT22;4762;48.128;11.376;2023-11-21T01:16:03;5.20;89.20
9448;DHT22;4762;48.128;11.376;2023-11-21T01:18:05;5.30;89.10
9448;DHT22;4762;48.128;11.376;2023-11-21T01:20:08;5.30;89.10
9448;DHT22;4762;48.128;11.376;2023-11-21T01:22:11;5.30;89.20
9448;DHT22;4762;48.128;11.376;2023-11-21T01:24:13;5.20;89.20
9448;DHT22;4762;48.128;11.376;2023-11-21T01:26:16;5.40;89.10
9448;DHT22;4762;48.128;11.376;2023-11-21T01:28:18;5.20;89.00
9448;DHT22;4762;48.128;11.376;2023-11-21T01:30:20;5.20;89.10
9448;DHT22;4762;48.128;11.376;2023-11-21T01:32:22;5.20;89.00
9448;DHT22;4762;48.128;11.376;2023-11-21T01:34:24;5.30;89.00
9448;DHT22;4762;48.128;11.376;2023-11-21T01:36:30;5.30;89.10
9448;DHT22;4762;48.128;11.376;2023-11-21T01:38:32;5.40;89.20
9448;DHT22;4762;48.128;11.376;2023-11-21T01:40:34;5.30;89.30
9448;DHT22;4762;48.128;11.376;2023-11-21T01:42:37;5.30;89.40
9448;DHT22;4762;48.128;11.376;2023-11-21T01:44:39;5.40;89.30
9448;DHT22;4762;48.128;11.376;2023-11-21T01:46:41;5.40;89.20
9448;DHT22;4762;48.128;11.376;2023-11-21T01:48:44;5.30;89.20
9448;DHT22;4762;48.128;11.376;2023-11-21T01:50:47;5.50;89.00
9448;DHT22;4762;48.128;11.376;2023-11-21T01:52:49;5.30;88.80
9448;DHT22;4762;48.128;11.376;2023-11-21T01:54:51;5.40;88.70
9448;DHT22;4762;48.128;11.376;2023-11-21T01:56:54;5.60;88.80
9448;DHT22;4762;48.128;11.376;2023-11-21T01:58:56;5.60;88.50
9448;DHT22;4762;48.128;11.376;2023-11-21T02:00:58;5.50;88.70
9448;DHT22;4762;48.128;11.376;2023-11-21T02:03:00;5.60;88.60
9448;DHT22;4762;48.128;11.376;2023-11-21T02:05:03;5.50;88.20
9448;DHT22;4762;48.128;11.376;2023-11-21T02:07:05;5.60;88.20
9448;DHT22;4762;48.128;11.376;2023-11-21T02:09:08;5.80;87.90
9448;DHT22;4762;48.128;11.376;2023-11-21T02:11:11;5.90;87.50
9448;DHT22;4762;48.128;11.376;2023-11-21T02:13:14;5.90;86.90
9448;DHT22;4762;48.128;11.376;2023-11-21T02:15:18;5.90;86.70
9448;DHT22;4762;48.128;11.376;2023-11-21T02:17:23;6.20;85.70
9448;DHT22;4762;48.128;11.376;2023-11-21T02:19:25;5.90;87.00
9448;DHT22;4762;48.128;11.376;2023-11-21T02:21:28;6.10;87.70
9448;DHT22;4762;48.128;11.376;2023-11-21T02:23:30;6.00;87.30
9448;DHT22;4762;48.128;11.376;2023-11-21T02:25:33;5.90;87.10
9448;DHT22;4762;48.128;11.376;2023-11-21T02:27:36;5.80;87.90
9448;DHT22;4762;48.128;11.376;2023-11-21T02:29:38;5.70;87.90
9448;DHT22;4762;48.128;11.376;2023-11-21T02:31:40;5.80;89.10
9448;DHT22;4762;48.128;11.376;2023-11-21T02:33:42;5.50;90.30
9448;DHT22;4762;48.128;11.376;2023-11-21T02:35:44;5.80;90.70
9448;DHT22;4762;48.128;11.376;2023-11-21T02:37:47;5.80;90.60
9448;DHT22;4762;48.128;11.376;2023-11-21T02:39:49;5.60;90.50
9448;DHT22;4762;48.128;11.376;2023-11-21T02:41:51;5.40;91.10
9448;DHT22;4762;48.128;11.376;2023-11-21T02:43:53;5.40;90.80
9448;DHT22;4762;48.128;11.376;2023-11-21T02:45:56;5.50;91.10
9448;DHT22;4762;48.128;11.376;2023-11-21T02:47:58;5.40;90.90
9448;DHT22;4762;48.128;11.376;2023-11-21T02:50:00;5.60;91.30
9448;DHT22;4762;48.128;11.376;2023-11-21T02:52:02;5.50;91.00
9448;DHT22;4762;48.128;11.376;2023-11-21T02:54:05;5.70;91.20
9448;DHT22;4762;48.128;11.376;2023-11-21T02:56:07;5.70;91.20
9448;DHT22;4762;48.128;11.376;2023-11-21T02:58:09;5.70;91.20
9448;DHT22;4762;48.128;11.376;2023-11-21T03:00:12;5.50;91.30
9448;DHT22;4762;48.128;11.376;2023-11-21T03:02:14;5.70;91.30
9448;DHT22;4762;48.128;11.376;2023-11-21T03:04:16;5.50;90.90
9448;DHT22;4762;48.128;11.376;2023-11-21T03:06:19;5.80;90.80
9448;DHT22;4762;48.128;11.376;2023-11-21T03:08:21;5.80;90.50
9448;DHT22;4762;48.128;11.376;2023-11-21T03:10:24;5.80;90.30
9448;DHT22;4762;48.128;11.376;2023-11-21T03:12:27;5.80;89.80
9448;DHT22;4762;48.128;11.376;2023-11-21T03:14:29;5.90;89.10
9448;DHT22;4762;48.128;11.376;2023-11-21T03:16:33;5.90;89.20
9448;DHT22;4762;48.128;11.376;2023-11-21T03:18:37;5.90;88.70
9448;DHT22;4762;48.128;11.376;2023-11-21T03:20:39;5.90;89.20
9448;DHT22;4762;48.128;11.376;2023-11-21T03:22:41;5.80;88.50
9448;DHT22;4762;48.128;11.376;2023-11-21T03:24:44;6.00;88.30
9448;DHT22;4762;48.128;11.376;2023-11-21T03:26:46;5.90;88.10
9448;DHT22;4762;48.128;11.376;2023-11-21T03:28:48;6.00;87.90
9448;DHT22;4762;48.128;11.376;2023-11-21T03:30:50;6.00;87.80
9448;DHT22;4762;48.128;11.376;2023-11-21T03:32:52;6.00;87.10
9448;DHT22;4762;48.128;11.376;2023-11-21T03:34:56;6.20;87.10
9448;DHT22;4762;48.128;11.376;2023-11-21T03:36:57;6.30;87.00
9448;DHT22;4762;48.128;11.376;2023-11-21T03:39:00;6.20;87.10
9448;DHT22;4762;48.128;11.376;2023-11-21T03:41:02;6.20;86.40
9448;DHT22;4762;48.128;11.376;2023-11-21T03:43:05;6.00;85.70
9448;DHT22;4762;48.128;11.376;2023-11-21T03:45:08;6.20;85.90
9448;DHT22;4762;48.128;11.376;2023-11-21T03:47:10;6.20;86.10
9448;DHT22;4762;48.128;11.376;2023-11-21T03:49:12;6.40;85.70
9448;DHT22;4762;48.128;11.376;2023-11-21T03:51:15;6.20;85.10
9448;DHT22;4762;48.128;11.376;2023-11-21T03:53:17;6.30;84.90
9448;DHT22;4762;48.128;11.376;2023-11-21T03:55:20;6.40;85.70
9448;DHT22;4762;48.128;11.376;2023-11-21T03:57:22;6.30;85.20
9448;DHT22;4762;48.128;11.376;2023-11-21T03:59:24;6.20;85.40
9448;DHT22;4762;48.128;11.376;2023-11-21T04:01:26;6.40;85.20
9448;DHT22;4762;48.128;11.376;2023-11-21T04:03:28;6.20;85.10
9448;DHT22;4762;48.128;11.376;2023-11-21T04:05:31;6.40;84.80
9448;DHT22;4762;48.128;11.376;2023-11-21T04:07:33;6.20;84.70
9448;DHT22;4762;48.128;11.376;2023-11-21T04:09:35;6.30;85.30
9448;DHT22;4762;48.128;11.376;2023-11-21T04:11:37;6.40;84.60
9448;DHT22;4762;48.128;11.376;2023-11-21T04:13:39;6.40;84.40
9448;DHT22;4762;48.128;11.376;2023-11-21T04:15:42;6.50;85.00
9448;DHT22;4762;48.128;11.376;2023-11-21T04:17:44;6.40;85.30
9448;DHT22;4762;48.128;11.376;2023-11-21T04:19:46;6.40;85.10
9448;DHT22;4762;48.128;11.376;2023-11-21T04:21:49;6.20;85.30
9448;DHT22;4762;48.128;11.376;2023-11-21T04:23:51;6.20;85.40
9448;DHT22;4762;48.128;11.376;2023-11-21T04:25:53;6.20;85.70
9448;DHT22;4762;48.128;11.376;2023-11-21T04:27:56;6.40;85.70
9448;DHT22;4762;48.128;11.376;2023-11-21T04:29:58;6.20;86.50
9448;DHT22;4762;48.128;11.376;2023-11-21T04:32:01;6.40;85.90
9448;DHT22;4762;48.128;11.376;2023-11-21T04:34:02;6.10;86.10
9448;DHT22;4762;48.128;11.376;2023-11-21T04:36:05;6.20;85.70
9448;DHT22;4762;48.128;11.376;2023-11-21T04:38:07;6.30;85.60
9448;DHT22;4762;48.128;11.376;2023-11-21T04:40:10;6.10;85.50
9448;DHT22;4762;48.128;11.376;2023-11-21T04:42:12;6.20;85.40
9448;DHT22;4762;48.128;11.376;2023-11-21T04:44:14;6.30;86.10
9448;DHT22;4762;48.128;11.376;2023-11-21T04:46:17;6.00;85.80
9448;DHT22;4762;48.128;11.376;2023-11-21T04:48:19;6.20;85.50
9448;DHT22;4762;48.128;11.376;2023-11-21T04:50:21;6.10;85.80
9448;DHT22;4762;48.128;11.376;2023-11-21T04:52:23;6.20;85.30
9448;DHT22;4762;48.128;11.376;2023-11-21T04:54:25;6.20;85.70
9448;DHT22;4762;48.128;11.376;2023-11-21T04:56:28;6.20;85.40
9448;DHT22;4762;48.128;11.376;2023-11-21T04:58:31;6.20;86.00
9448;DHT22;4762;48.128;11.376;2023-11-21T05:00:33;5.90;86.00
9448;DHT22;4762;48.128;11.376;2023-11-21T05:02:35;6.10;85.70
9448;DHT22;4762;48.128;11.376;2023-11-21T05:04:37;6.00;85.90
9448;DHT22;4762;48.128;11.376;2023-11-21T05:06:40;5.90;85.60
9448;DHT22;4762;48.128;11.376;2023-11-21T05:08:42;6.10;85.70
9448;DHT22;4762;48.128;11.376;2023-11-21T05:10:44;5.90;85.70
9448;DHT22;4762;48.128;11.376;2023-11-21T05:12:46;6.10;85.60
9448;DHT22;4762;48.128;11.376;2023-11-21T05:14:50;6.10;85.20
9448;DHT22;4762;48.128;11.376;2023-11-21T05:16:52;6.10;85.40
9448;DHT22;4762;48.128;11.376;2023-11-21T05:18:54;6.00;85.10
9448;DHT22;4762;48.128;11.376;2023-11-21T05:20:56;5.90;84.80
9448;DHT22;4762;48.128;11.376;2023-11-21T05:22:58;5.90;84.90
9448;DHT22;4762;48.128;11.376;2023-11-21T05:25:01;6.00;84.70
9448;DHT22;4762;48.128;11.376;2023-11-21T05:27:03;5.90;84.90
9448;DHT22;4762;48.128;11.376;2023-11-21T05:29:06;6.00;84.70
9448;DHT22;4762;48.128;11.376;2023-11-21T05:31:08;5.90;84.60
9448;DHT22;4762;48.128;11.376;2023-11-21T05:33:10;6.00;84.20
9448;DHT22;4762;48.128;11.376;2023-11-21T05:35:12;6.10;84.20
9448;DHT22;4762;48.128;11.376;2023-11-21T05:37:15;6.10;84.40
9448;DHT22;4762;48.128;11.376;2023-11-21T05:39:18;6.00;84.70
9448;DHT22;4762;48.128;11.376;2023-11-21T05:41:21;5.90;84.70
9448;DHT22;4762;48.128;11.376;2023-11-21T05:43:23;5.90;84.90
9448;DHT22;4762;48.128;11.376;2023-11-21T05:45:25;5.90;85.00
9448;DHT22;4762;48.128;11.376;2023-11-21T05:47:27;5.90;84.50
9448;DHT22;4762;48.128;11.376;2023-11-21T05:49:30;5.80;84.40
9448;DHT22;4762;48.128;11.376;2023-11-21T05:51:33;5.70;84.70
9448;DHT22;4762;48.128;11.376;2023-11-21T05:53:35;5.80;84.60
9448;DHT22;4762;48.128;11.376;2023-11-21T05:55:37;5.90;84.60
9448;DHT22;4762;48.128;11.376;2023-11-21T05:57:40;5.70;84.80
9448;DHT22;4762;48.128;11.376;2023-11-21T05:59:41;5.90;84.60
9448;DHT22;4762;48.128;11.376;2023-11-21T06:01:44;5.90;84.70
9448;DHT22;4762;48.128;11.376;2023-11-21T06:03:46;5.90;84.60
9448;DHT22;4762;48.128;11.376;2023-11-21T06:05:48;5.80;84.90
9448;DHT22;4762;48.128;11.376;2023-11-21T06:07:51;6.00;84.50
9448;DHT22;4762;48.128;11.376;2023-11-21T06:09:52;6.10;84.50
9448;DHT22;4762;48.128;11.376;2023-11-21T06:11:55;6.00;84.50
9448;DHT22;4762;48.128;11.376;2023-11-21T06:13:58;6.10;84.70
9448;DHT22;4762;48.128;11.376;2023-11-21T06:16:01;5.90;84.50
9448;DHT22;4762;48.128;11.376;2023-11-21T06:18:03;6.00;84.30
9448;DHT22;4762;48.128;11.376;2023-11-21T06:20:06;6.00;85.00
9448;DHT22;4762;48.128;11.376;2023-11-21T06:22:12;6.00;84.20
9448;DHT22;4762;48.128;11.376;2023-11-21T06:24:14;6.00;84.10
9448;DHT22;4762;48.128;11.376;2023-11-21T06:26:17;6.10;84.30
9448;DHT22;4762;48.128;11.376;2023-11-21T06:28:19;6.00;84.30
9448;DHT22;4762;48.128;11.376;2023-11-21T06:30:21;5.90;84.20
9448;DHT22;4762;48.128;11.376;2023-11-21T06:32:23;5.90;84.30
9448;DHT22;4762;48.128;11.376;2023-11-21T06:34:26;6.10;84.00
9448;DHT22;4762;48.128;11.376;2023-11-21T06:36:28;6.00;84.10
9448;DHT22;4762;48.128;11.376;2023-11-21T06:38:30;6.10;84.10
9448;DHT22;4762;48.128;11.376;2023-11-21T06:40:32;6.10;83.70
9448;DHT22;4762;48.128;11.376;2023-11-21T06:42:34;6.10;84.10
9448;DHT22;4762;48.128;11.376;2023-11-21T06:44:37;6.10;84.20
9448;DHT22;4762;48.128;11.376;2023-11-21T06:46:39;6.00;84.00
9448;DHT22;4762;48.128;11.376;2023-11-21T06:48:42;6.10;84.10
9448;DHT22;4762;48.128;11.376;2023-11-21T06:50:45;6.20;84.10
9448;DHT22;4762;48.128;11.376;2023-11-21T06:52:47;6.20;84.10
9448;DHT22;4762;48.128;11.376;2023-11-21T06:54:49;6.10;84.10
9448;DHT22;4762;48.128;11.376;2023-11-21T06:56:51;5.80;83.90
9448;DHT22;4762;48.128;11.376;2023-11-21T06:58:54;6.20;84.00
9448;DHT22;4762;48.128;11.376;2023-11-21T07:00:56;6.10;83.40
9448;DHT22;4762;48.128;11.376;2023-11-21T07:02:58;6.00;83.40
9448;DHT22;4762;48.128;11.376;2023-11-21T07:05:01;6.00;82.80
9448;DHT22;4762;48.128;11.376;2023-11-21T07:07:04;6.10;82.70
9448;DHT22;4762;48.128;11.376;2023-11-21T07:09:06;6.10;82.20
9448;DHT22;4762;48.128;11.376;2023-11-21T07:11:08;6.30;82.80
9448;DHT22;4762;48.128;11.376;2023-11-21T07:13:10;6.20;82.20
9448;DHT22;4762;48.128;11.376;2023-11-21T07:15:12;6.20;82.20
9448;DHT22;4762;48.128;11.376;2023-11-21T07:17:14;6.20;82.10
9448;DHT22;4762;48.128;11.376;2023-11-21T07:19:17;6.20;82.10
9448;DHT22;4762;48.128;11.376;2023-11-21T07:21:19;6.20;82.30
9448;DHT22;4762;48.128;11.376;2023-11-21T07:23:21;6.40;82.20
9448;DHT22;4762;48.128;11.376;2023-11-21T07:25:23;6.30;82.40
9448;DHT22;4762;48.128;11.376;2023-11-21T07:27:26;6.10;82.20
9448;DHT22;4762;48.128;11.376;2023-11-21T07:29:28;6.30;82.00
9448;DHT22;4762;48.128;11.376;2023-11-21T07:31:30;6.10;82.40
9448;DHT22;4762;48.128;11.376;2023-11-21T07:33:33;6.40;81.90
9448;DHT22;4762;48.128;11.376;2023-11-21T07:35:35;6.40;81.70
9448;DHT22;4762;48.128;11.376;2023-11-21T07:37:37;6.30;81.80
9448;DHT22;4762;48.128;11.376;2023-11-21T07:39:39;6.20;82.00
9448;DHT22;4762;48.128;11.376;2023-11-21T07:41:41;6.50;82.20
9448;DHT22;4762;48.128;11.376;2023-11-21T07:43:46;6.40;82.00
9448;DHT22;4762;48.128;11.376;2023-11-21T07:45:48;6.40;81.70
9448;DHT22;4762;48.128;11.376;2023-11-21T07:47:50;6.50;82.40
9448;DHT22;4762;48.128;11.376;2023-11-21T07:49:53;6.50;81.30
9448;DHT22;4762;48.128;11.376;2023-11-21T07:51:55;6.60;81.80
9448;DHT22;4762;48.128;11.376;2023-11-21T07:53:57;6.50;81.90
9448;DHT22;4762;48.128;11.376;2023-11-21T07:56:07;6.50;81.50
9448;DHT22;4762;48.128;11.376;2023-11-21T07:58:10;6.40;81.50
9448;DHT22;4762;48.128;11.376;2023-11-21T08:00:12;6.50;81.50
9448;DHT22;4762;48.128;11.376;2023-11-21T08:02:15;6.30;81.90
9448;DHT22;4762;48.128;11.376;2023-11-21T08:04:17;6.40;81.90
9448;DHT22;4762;48.128;11.376;2023-11-21T08:06:19;6.30;81.50
9448;DHT22;4762;48.128;11.376;2023-11-21T08:08:21;6.50;81.60
9448;DHT22;4762;48.128;11.376;2023-11-21T08:10:24;6.40;81.50
9448;DHT22;4762;48.128;11.376;2023-11-21T08:12:26;6.50;82.10
9448;DHT22;4762;48.128;11.376;2023-11-21T08:14:28;6.40;81.70
9448;DHT22;4762;48.128;11.376;2023-11-21T08:16:30;6.40;81.50
9448;DHT22;4762;48.128;11.376;2023-11-21T08:18:33;6.60;81.30
9448;DHT22;4762;48.128;11.376;2023-11-21T08:20:35;6.70;80.70
9448;DHT22;4762;48.128;11.376;2023-11-21T08:22:38;6.90;80.90
9448;DHT22;4762;48.128;11.376;2023-11-21T08:24:40;6.90;80.40
9448;DHT22;4762;48.128;11.376;2023-11-21T08:26:42;6.90;81.20
9448;DHT22;4762;48.128;11.376;2023-11-21T08:28:44;6.90;80.50
9448;DHT22;4762;48.128;11.376;2023-11-21T08:30:46;7.00;80.40
9448;DHT22;4762;48.128;11.376;2023-11-21T08:32:49;6.90;80.20
9448;DHT22;4762;48.128;11.376;2023-11-21T08:34:51;7.00;80.10
9448;DHT22;4762;48.128;11.376;2023-11-21T08:36:53;7.20;80.50
9448;DHT22;4762;48.128;11.376;2023-11-21T08:38:55;7.20;79.50
9448;DHT22;4762;48.128;11.376;2023-11-21T08:40:57;7.20;79.30
9448;DHT22;4762;48.128;11.376;2023-11-21T08:43:00;7.30;79.00
9448;DHT22;4762;48.128;11.376;2023-11-21T08:45:02;7.40;79.00
9448;DHT22;4762;48.128;11.376;2023-11-21T08:47:04;7.50;79.50
9448;DHT22;4762;48.128;11.376;2023-11-21T08:49:06;7.50;79.60
9448;DHT22;4762;48.128;11.376;2023-11-21T08:51:09;7.50;79.30
9448;DHT22;4762;48.128;11.376;2023-11-21T08:53:11;7.20;79.40
9448;DHT22;4762;48.128;11.376;2023-11-21T08:55:13;7.40;79.60
9448;DHT22;4762;48.128;11.376;2023-11-21T08:57:15;7.40;79.60
9448;DHT22;4762;48.128;11.376;2023-11-21T08:59:17;7.10;79.90
9448;DHT22;4762;48.128;11.376;2023-11-21T09:01:20;7.30;79.90
9448;DHT22;4762;48.128;11.376;2023-11-21T09:03:22;7.30;80.40
9448;DHT22;4762;48.128;11.376;2023-11-21T09:05:24;7.40;79.60
9448;DHT22;4762;48.128;11.376;2023-11-21T09:07:26;7.50;79.30
9448;DHT22;4762;48.128;11.376;2023-11-21T09:09:28;7.80;79.10
9448;DHT22;4762;48.128;11.376;2023-11-21T09:11:31;7.70;78.70
9448;DHT22;4762;48.128;11.376;2023-11-21T09:13:33;7.90;79.00
9448;DHT22;4762;48.128;11.376;2023-11-21T09:15:35;8.10;78.90
9448;DHT22;4762;48.128;11.376;2023-11-21T09:17:38;8.10;78.40
9448;DHT22;4762;48.128;11.376;2023-11-21T09:19:40;8.20;77.40
9448;DHT22;4762;48.128;11.376;2023-11-21T09:21:43;8.30;78.90
9448;DHT22;4762;48.128;11.376;2023-11-21T09:23:45;8.20;78.30
9448;DHT22;4762;48.128;11.376;2023-11-21T09:25:48;7.80;78.30
9448;DHT22;4762;48.128;11.376;2023-11-21T09:27:51;7.80;78.30
9448;DHT22;4762;48.128;11.376;2023-11-21T09:29:53;8.00;78.70
9448;DHT22;4762;48.128;11.376;2023-11-21T09:31:56;7.80;78.30
9448;DHT22;4762;48.128;11.376;2023-11-21T09:33:58;8.00;78.70
9448;DHT22;4762;48.128;11.376;2023-11-21T09:36:01;8.10;77.90
9448;DHT22;4762;48.128;11.376;2023-11-21T09:38:03;8.00;78.00
9448;DHT22;4762;48.128;11.376;2023-11-21T09:40:06;8.10;78.40
9448;DHT22;4762;48.128;11.376;2023-11-21T09:42:11;8.20;78.20
9448;DHT22;4762;48.128;11.376;2023-11-21T09:44:13;8.50;78.50
9448;DHT22;4762;48.128;11.376;2023-11-21T09:46:15;8.40;78.10
9448;DHT22;4762;48.128;11.376;2023-11-21T09:48:17;8.40;76.30
9448;DHT22;4762;48.128;11.376;2023-11-21T09:50:19;8.40;77.40
9448;DHT22;4762;48.128;11.376;2023-11-21T09:52:24;8.40;78.50
9448;DHT22;4762;48.128;11.376;2023-11-21T09:54:24;8.40;77.80
9448;DHT22;4762;48.128;11.376;2023-11-21T09:56:27;8.40;78.20
9448;DHT22;4762;48.128;11.376;2023-11-21T09:58:29;8.90;77.60
9448;DHT22;4762;48.128;11.376;2023-11-21T10:00:32;9.00;75.60
9448;DHT22;4762;48.128;11.376;2023-11-21T10:02:34;9.20;75.60
9448;DHT22;4762;48.128;11.376;2023-11-21T10:04:37;8.90;75.40
9448;DHT22;4762;48.128;11.376;2023-11-21T10:06:39;9.10;75.60
9448;DHT22;4762;48.128;11.376;2023-11-21T10:08:44;8.90;76.50
9448;DHT22;4762;48.128;11.376;2023-11-21T10:10:46;8.70;76.60
9448;DHT22;4762;48.128;11.376;2023-11-21T10:12:50;9.00;76.80
9448;DHT22;4762;48.128;11.376;2023-11-21T10:14:51;9.20;75.40
9448;DHT22;4762;48.128;11.376;2023-11-21T10:16:54;9.00;75.80
9448;DHT22;4762;48.128;11.376;2023-11-21T10:18:56;9.20;76.20
9448;DHT22;4762;48.128;11.376;2023-11-21T10:20:59;9.20;75.40
9448;DHT22;4762;48.128;11.376;2023-11-21T10:23:01;8.90;76.40
9448;DHT22;4762;48.128;11.376;2023-11-21T10:25:03;8.70;76.70
9448;DHT22;4762;48.128;11.376;2023-11-21T10:27:05;8.50;76.60
9448;DHT22;4762;48.128;11.376;2023-11-21T10:29:08;8.80;77.10
9448;DHT22;4762;48.128;11.376;2023-11-21T10:31:10;8.80;76.60
9448;DHT22;4762;48.128;11.376;2023-11-21T10:33:12;8.90;77.00
9448;DHT22;4762;48.128;11.376;2023-11-21T10:35:14;8.80;76.80
9448;DHT22;4762;48.128;11.376;2023-11-21T10:37:17;8.90;76.70
9448;DHT22;4762;48.128;11.376;2023-11-21T10:39:19;9.10;77.10
9448;DHT22;4762;48.128;11.376;2023-11-21T10:41:21;9.10;76.70
9448;DHT22;4762;48.128;11.376;2023-11-21T10:43:26;9.20;75.80
9448;DHT22;4762;48.128;11.376;2023-11-21T10:45:28;9.30;74.80
9448;DHT22;4762;48.128;11.376;2023-11-21T10:47:30;9.00;75.00
9448;DHT22;4762;48.128;11.376;2023-11-21T10:49:32;9.00;75.50
9448;DHT22;4762;48.128;11.376;2023-11-21T10:51:35;8.90;76.70
9448;DHT22;4762;48.128;11.376;2023-11-21T10:53:40;9.20;76.60
9448;DHT22;4762;48.128;11.376;2023-11-21T10:55:43;9.30;75.30
9448;DHT22;4762;48.128;11.376;2023-11-21T10:57:46;9.20;75.40
9448;DHT22;4762;48.128;11.376;2023-11-21T10:59:48;9.10;75.90
9448;DHT22;4762;48.128;11.376;2023-11-21T11:01:51;9.20;75.80
9448;DHT22;4762;48.128;11.376;2023-11-21T11:03:53;9.70;74.00
9448;DHT22;4762;48.128;11.376;2023-11-21T11:05:55;10.30;72.10
9448;DHT22;4762;48.128;11.376;2023-11-21T11:08:00;10.20;74.60
9448;DHT22;4762;48.128;11.376;2023-11-21T11:10:02;10.90;68.80
9448;DHT22;4762;48.128;11.376;2023-11-21T11:12:04;11.60;70.90
9448;DHT22;4762;48.128;11.376;2023-11-21T11:14:08;11.60;66.20
9448;DHT22;4762;48.128;11.376;2023-11-21T11:16:08;10.80;68.40
9448;DHT22;4762;48.128;11.376;2023-11-21T11:18:11;10.20;70.10
9448;DHT22;4762;48.128;11.376;2023-11-21T11:20:13;9.90;72.30
9448;DHT22;4762;48.128;11.376;2023-11-21T11:24:34;10.50;69.60
9448;DHT22;4762;48.128;11.376;2023-11-21T11:28:52;10.30;70.90
9448;DHT22;4762;48.128;11.376;2023-11-21T11:31:21;10.40;70.10
9448;DHT22;4762;48.128;11.376;2023-11-21T11:35:34;10.30;70.60
9448;DHT22;4762;48.128;11.376;2023-11-21T11:37:39;9.90;71.70
9448;DHT22;4762;48.128;11.376;2023-11-21T11:39:41;9.60;72.70
9448;DHT22;4762;48.128;11.376;2023-11-21T11:41:44;9.80;72.50
9448;DHT22;4762;48.128;11.376;2023-11-21T11:43:46;10.10;69.80
9448;DHT22;4762;48.128;11.376;2023-11-21T11:45:49;9.90;71.40
9448;DHT22;4762;48.128;11.376;2023-11-21T11:47:56;9.80;71.90
9448;DHT22;4762;48.128;11.376;2023-11-21T11:50:03;9.90;71.80
9448;DHT22;4762;48.128;11.376;2023-11-21T11:54:38;10.20;69.80
9448;DHT22;4762;48.128;11.376;2023-11-21T11:56:40;9.80;69.90
9448;DHT22;4762;48.128;11.376;2023-11-21T11:58:42;9.70;72.60
9448;DHT22;4762;48.128;11.376;2023-11-21T12:00:45;9.90;71.10
9448;DHT22;4762;48.128;11.376;2023-11-21T12:02:47;10.10;72.00
9448;DHT22;4762;48.128;11.376;2023-11-21T12:04:49;10.00;69.20
9448;DHT22;4762;48.128;11.376;2023-11-21T12:06:52;9.70;71.00
9448;DHT22;4762;48.128;11.376;2023-11-21T12:08:54;9.50;71.10
9448;DHT22;4762;48.128;11.376;2023-11-21T12:10:57;9.40;71.00
9448;DHT22;4762;48.128;11.376;2023-11-21T12:13:01;9.50;72.00
9448;DHT22;4762;48.128;11.376;2023-11-21T12:15:03;9.50;72.00
9448;DHT22;4762;48.128;11.376;2023-11-21T12:17:05;9.60;70.90
9448;DHT22;4762;48.128;11.376;2023-11-21T12:19:07;9.70;69.70
9448;DHT22;4762;48.128;11.376;2023-11-21T12:21:09;9.80;69.10
9448;DHT22;4762;48.128;11.376;2023-11-21T12:23:12;9.90;68.60
9448;DHT22;4762;48.128;11.376;2023-11-21T12:25:29;9.80;69.60
9448;DHT22;4762;48.128;11.376;2023-11-21T12:27:31;10.20;68.40
9448;DHT22;4762;48.128;11.376;2023-11-21T12:29:33;10.20;67.90
9448;DHT22;4762;48.128;11.376;2023-11-21T12:31:35;10.00;68.80
9448;DHT22;4762;48.128;11.376;2023-11-21T12:33:37;9.70;68.70
9448;DHT22;4762;48.128;11.376;2023-11-21T12:35:40;9.60;69.80
9448;DHT22;4762;48.128;11.376;2023-11-21T12:37:42;9.70;69.20
9448;DHT22;4762;48.128;11.376;2023-11-21T12:39:45;9.80;71.60
9448;DHT22;4762;48.128;11.376;2023-11-21T12:41:47;9.80;70.30
9448;DHT22;4762;48.128;11.376;2023-11-21T12:43:49;9.90;71.90
9448;DHT22;4762;48.128;11.376;2023-11-21T12:46:04;9.90;70.60
9448;DHT22;4762;48.128;11.376;2023-11-21T12:47:55;9.80;70.60
9448;DHT22;4762;48.128;11.376;2023-11-21T12:49:57;9.60;70.20
9448;DHT22;4762;48.128;11.376;2023-11-21T12:52:00;9.60;71.40
9448;DHT22;4762;48.128;11.376;2023-11-21T12:54:02;9.50;71.90
9448;DHT22;4762;48.128;11.376;2023-11-21T12:56:07;9.40;71.60
9448;DHT22;4762;48.128;11.376;2023-11-21T12:58:10;9.10;74.10
9448;DHT22;4762;48.128;11.376;2023-11-21T13:00:12;8.90;75.80
9448;DHT22;4762;48.128;11.376;2023-11-21T13:02:15;8.70;77.00
9448;DHT22;4762;48.128;11.376;2023-11-21T13:04:17;8.70;77.80
9448;DHT22;4762;48.128;11.376;2023-11-21T13:06:19;8.60;77.30
9448;DHT22;4762;48.128;11.376;2023-11-21T13:08:22;8.60;77.80
9448;DHT22;4762;48.128;11.376;2023-11-21T13:10:24;8.60;76.50
9448;DHT22;4762;48.128;11.376;2023-11-21T13:12:27;8.70;76.70
9448;DHT22;4762;48.128;11.376;2023-11-21T13:14:30;8.70;77.70
9448;DHT22;4762;48.128;11.376;2023-11-21T13:16:32;8.80;77.20
9448;DHT22;4762;48.128;11.376;2023-11-21T13:18:34;9.00;76.30
9448;DHT22;4762;48.128;11.376;2023-11-21T13:20:36;9.00;76.70
9448;DHT22;4762;48.128;11.376;2023-11-21T13:22:38;9.10;77.50
9448;DHT22;4762;48.128;11.376;2023-11-21T13:24:41;9.10;78.00
9448;DHT22;4762;48.128;11.376;2023-11-21T13:26:43;9.10;76.80
9448;DHT22;4762;48.128;11.376;2023-11-21T13:28:45;9.30;76.00